createdAt,value
2022-10-12T00:02:03.174Z,13.75
2022-10-12T00:04:30.464Z,16.65
2022-10-12T00:06:57.617Z,16.42
2022-10-12T00:09:24.739Z,17.23
2022-10-12T00:11:51.925Z,12.38
2022-10-12T00:14:19.065Z,16.48
2022-10-12T00:16:46.306Z,23.73
2022-10-12T00:19:14.322Z,21.90
2022-10-12T00:21:41.551Z,9.93
2022-10-12T00:24:09.827Z,15.52
2022-10-12T00:26:37.219Z,14.85
2022-10-12T00:29:04.896Z,14.80
2022-10-12T00:31:32.603Z,11.18
2022-10-12T00:34:00.711Z,18.55
2022-10-12T00:36:30.035Z,12.77
2022-10-12T00:38:57.433Z,18.73
2022-10-12T00:41:25.933Z,10.30
2022-10-12T00:43:57.833Z,17.13
2022-10-12T00:46:25.837Z,16.33
2022-10-12T00:48:55.949Z,19.77
2022-10-12T00:51:23.469Z,17.33
2022-10-12T00:53:56.563Z,14.93
2022-10-12T00:56:25.425Z,14.07
2022-10-12T00:58:54.916Z,20.30
2022-10-12T01:01:23.162Z,9.52
2022-10-12T01:03:50.882Z,16.20
2022-10-12T01:06:18.903Z,14.27
2022-10-12T01:08:46.789Z,14.95
2022-10-12T01:11:13.984Z,15.23
2022-10-12T01:13:41.123Z,12.98
2022-10-12T01:16:20.804Z,12.68
2022-10-12T01:18:57.104Z,14.38
2022-10-12T01:21:24.653Z,19.77
2022-10-12T01:24:20.929Z,14.88
2022-10-12T01:27:02.288Z,12.18
2022-10-12T01:29:47.993Z,15.90
2022-10-12T01:34:45.702Z,14.80
2022-10-12T01:37:31.601Z,12.50
2022-10-12T01:40:00.844Z,14.10
2022-10-12T01:42:30.127Z,12.50
2022-10-12T01:45:07.880Z,11.95
2022-10-12T01:47:36.237Z,16.65
2022-10-12T01:50:05.157Z,12.48
2022-10-12T01:52:37.940Z,12.43
2022-10-12T01:55:08.333Z,19.00
2022-10-12T01:57:41.530Z,14.35
2022-10-12T02:00:13.147Z,13.18
2022-10-12T02:02:43.024Z,11.50
2022-10-12T02:05:25.651Z,11.00
2022-10-12T02:08:05.534Z,13.30
2022-10-12T02:10:52.944Z,15.75
2022-10-12T02:13:21.155Z,11.40
2022-10-12T02:15:50.364Z,14.23
2022-10-12T02:18:19.502Z,17.33
2022-10-12T02:20:48.574Z,13.77
2022-10-12T02:23:16.450Z,15.57
2022-10-12T02:25:43.694Z,14.23
2022-10-12T02:28:12.277Z,15.95
2022-10-12T02:30:44.231Z,15.95
2022-10-12T02:33:19.629Z,13.15
2022-10-12T02:35:50.197Z,17.70
2022-10-12T02:38:20.784Z,22.67
2022-10-12T02:40:52.496Z,16.42
2022-10-12T02:43:35.744Z,17.35
2022-10-12T02:46:05.256Z,19.17
2022-10-12T02:48:32.515Z,15.23
2022-10-12T02:51:00.373Z,13.07
2022-10-12T02:53:28.935Z,15.45
2022-10-12T02:56:00.556Z,13.90
2022-10-12T02:58:27.710Z,18.83
2022-10-12T03:00:54.918Z,17.13
2022-10-12T03:03:22.265Z,20.20
2022-10-12T03:05:49.421Z,16.30
2022-10-12T03:08:16.650Z,18.17
2022-10-12T03:10:43.832Z,16.85
2022-10-12T03:13:11.108Z,16.88
2022-10-12T03:15:38.281Z,17.15
2022-10-12T03:18:05.439Z,18.75
2022-10-12T03:20:32.583Z,17.90
2022-10-12T03:22:59.764Z,17.38
2022-10-12T03:25:26.969Z,19.30
2022-10-12T03:27:54.129Z,17.35
2022-10-12T03:30:21.272Z,17.80
2022-10-12T03:32:48.497Z,26.33
2022-10-12T03:35:15.780Z,19.10
2022-10-12T03:37:43.009Z,18.52
2022-10-12T03:40:10.504Z,17.42
2022-10-12T03:42:37.678Z,18.10
2022-10-12T03:45:04.978Z,18.73
2022-10-12T03:47:32.196Z,23.55
2022-10-12T03:49:59.444Z,26.17
2022-10-12T03:52:26.715Z,19.27
2022-10-12T03:54:53.929Z,22.08
2022-10-12T03:57:21.134Z,21.08
2022-10-12T03:59:48.335Z,16.83
2022-10-12T04:02:17.113Z,17.05
2022-10-12T04:04:44.546Z,20.08
2022-10-12T04:07:12.095Z,19.67
2022-10-12T04:09:39.246Z,17.73
2022-10-12T04:12:06.565Z,15.25
2022-10-12T04:14:33.729Z,20.85
2022-10-12T04:17:00.873Z,15.75
2022-10-12T04:19:28.241Z,21.67
2022-10-12T04:21:55.394Z,20.90
2022-10-12T04:24:22.556Z,20.88
2022-10-12T04:26:49.690Z,24.35
2022-10-12T04:29:16.816Z,25.83
2022-10-12T04:31:44.085Z,23.48
2022-10-12T04:34:11.244Z,25.20
2022-10-12T04:36:39.240Z,20.52
2022-10-12T04:39:06.437Z,18.95
2022-10-12T04:41:33.564Z,22.23
2022-10-12T04:44:00.778Z,20.90
2022-10-12T04:46:28.028Z,32.53
2022-10-12T04:48:55.213Z,22.92
2022-10-12T04:51:22.343Z,24.95
2022-10-12T04:53:49.504Z,26.63
2022-10-12T04:56:16.709Z,24.17
2022-10-12T04:58:44.177Z,21.70
2022-10-12T05:01:11.380Z,20.65
2022-10-12T05:03:42.002Z,20.80
2022-10-12T05:06:09.469Z,21.27
2022-10-12T05:08:36.675Z,24.13
2022-10-12T05:11:03.892Z,21.02
2022-10-12T05:13:31.202Z,27.75
2022-10-12T05:15:58.346Z,23.15
2022-10-12T05:18:25.601Z,27.75
2022-10-12T05:20:56.774Z,27.05
2022-10-12T05:23:24.254Z,26.55
2022-10-12T05:25:51.539Z,22.92
2022-10-12T05:28:18.770Z,22.77
2022-10-12T05:30:45.954Z,28.98
2022-10-12T05:33:13.093Z,28.48
2022-10-12T05:35:42.862Z,26.45
2022-10-12T05:38:13.971Z,25.83
2022-10-12T05:40:41.101Z,28.70
2022-10-12T05:43:08.312Z,28.10
2022-10-12T05:45:35.495Z,27.70
2022-10-12T05:48:02.665Z,23.27
2022-10-12T05:50:30.359Z,27.23
2022-10-12T05:52:57.503Z,25.55
2022-10-12T05:55:24.700Z,27.58
2022-10-12T05:57:52.127Z,27.77
2022-10-12T06:00:19.438Z,28.17
2022-10-12T06:02:46.590Z,28.15
2022-10-12T06:05:13.785Z,25.25
2022-10-12T06:07:41.005Z,24.48
2022-10-12T06:10:08.916Z,26.25
2022-10-12T06:12:36.438Z,38.17
2022-10-12T06:15:03.799Z,32.55
2022-10-12T06:17:30.996Z,28.50
2022-10-12T06:19:58.342Z,19.83
2022-10-12T06:22:25.497Z,28.95
2022-10-12T06:24:52.654Z,29.38
2022-10-12T06:27:20.482Z,23.80
2022-10-12T06:29:47.628Z,24.33
2022-10-12T06:32:14.781Z,23.75
2022-10-12T06:34:41.962Z,25.23
2022-10-12T06:37:20.478Z,25.58
2022-10-12T06:39:56.407Z,26.92
2022-10-12T06:42:23.569Z,25.70
2022-10-12T06:44:50.889Z,24.17
2022-10-12T06:47:18.031Z,28.42
2022-10-12T06:49:45.144Z,26.35
2022-10-12T06:52:12.329Z,20.77
2022-10-12T06:54:41.242Z,19.92
2022-10-12T06:57:08.509Z,29.17
2022-10-12T06:59:35.685Z,24.45
2022-10-12T07:02:02.941Z,26.35
2022-10-12T07:04:30.103Z,27.08
2022-10-12T07:06:57.257Z,25.45
2022-10-12T07:09:24.435Z,25.83
2022-10-12T07:11:51.882Z,20.60
2022-10-12T07:14:19.035Z,24.58
2022-10-12T07:16:49.486Z,23.15
2022-10-12T07:19:18.926Z,21.92
2022-10-12T07:21:46.079Z,25.52
2022-10-12T07:24:13.338Z,24.55
2022-10-12T07:26:40.678Z,25.73
2022-10-12T07:29:07.885Z,26.23
2022-10-12T07:31:35.028Z,31.20
2022-10-12T07:34:02.252Z,24.95
2022-10-12T07:36:47.351Z,20.58
2022-10-12T07:39:16.706Z,19.67
2022-10-12T07:41:43.984Z,22.88
2022-10-12T07:44:11.406Z,22.58
2022-10-12T07:46:38.725Z,27.13
2022-10-12T07:49:06.139Z,19.40
2022-10-12T07:51:33.382Z,19.90
2022-10-12T07:54:00.583Z,25.95
2022-10-12T07:56:27.870Z,17.10
2022-10-12T07:58:55.829Z,18.58
2022-10-12T08:01:24.606Z,15.93
2022-10-12T08:03:52.142Z,21.50
2022-10-12T08:06:21.752Z,19.88
2022-10-12T08:08:49.646Z,20.80
2022-10-12T08:11:17.310Z,27.27
2022-10-12T08:13:44.949Z,18.20
2022-10-12T08:16:14.028Z,17.35
2022-10-12T08:18:41.432Z,20.88
2022-10-12T08:21:09.241Z,18.63
2022-10-12T08:23:37.336Z,14.60
2022-10-12T08:26:05.717Z,17.65
2022-10-12T08:28:33.353Z,19.73
2022-10-12T08:31:01.149Z,16.15
2022-10-12T08:33:30.103Z,18.20
2022-10-12T08:35:57.673Z,19.88
2022-10-12T08:38:25.059Z,14.75
2022-10-12T08:41:18.874Z,21.00
2022-10-12T08:43:54.532Z,17.60
2022-10-12T08:46:22.903Z,15.23
2022-10-12T08:48:53.239Z,16.58
2022-10-12T08:51:22.747Z,18.65
2022-10-12T08:54:09.389Z,12.57
2022-10-12T08:56:39.661Z,13.43
2022-10-12T08:59:10.159Z,18.27
2022-10-12T09:01:40.614Z,21.85
2022-10-12T09:04:12.134Z,13.57
2022-10-12T09:06:51.983Z,16.20
2022-10-12T09:09:32.088Z,12.80
2022-10-12T09:12:06.536Z,12.23
2022-10-12T09:14:34.860Z,12.70
2022-10-12T09:17:03.708Z,13.05
2022-10-12T09:19:37.229Z,17.77
2022-10-12T09:22:05.405Z,17.45
2022-10-12T09:24:37.071Z,14.95
2022-10-12T09:27:20.639Z,15.60
2022-10-12T09:29:58.122Z,16.65
2022-10-12T09:32:28.139Z,15.52
2022-10-12T09:34:55.641Z,18.50
2022-10-12T09:37:24.398Z,16.55
2022-10-12T09:39:52.026Z,15.05
2022-10-12T09:42:19.214Z,15.07
2022-10-12T09:44:50.632Z,15.05
2022-10-12T09:47:24.064Z,15.05
2022-10-12T09:49:52.560Z,15.75
2022-10-12T09:52:23.541Z,15.10
2022-10-12T09:55:03.671Z,14.15
2022-10-12T09:57:40.412Z,14.05
2022-10-12T10:00:23.151Z,12.75
2022-10-12T10:02:51.581Z,11.38
2022-10-12T10:05:27.636Z,10.18
2022-10-12T10:08:13.218Z,11.23
2022-10-12T10:10:48.614Z,10.68
2022-10-12T10:15:44.173Z,10.15
2022-10-12T10:18:30.308Z,10.75
2022-10-12T10:20:59.048Z,10.70
2022-10-12T10:23:28.063Z,13.73
2022-10-12T10:25:57.014Z,11.18
2022-10-12T10:28:25.402Z,14.27
2022-10-12T10:31:00.271Z,10.93
2022-10-12T10:33:27.522Z,9.85
2022-10-12T10:36:06.720Z,15.10
2022-10-12T10:38:45.968Z,16.48
2022-10-12T10:41:18.070Z,10.05
2022-10-12T10:43:47.882Z,11.15
2022-10-12T10:46:16.065Z,8.27
2022-10-12T10:49:06.887Z,11.02
2022-10-12T10:51:42.557Z,14.73
2022-10-12T10:54:24.703Z,10.57
2022-10-12T10:56:53.208Z,13.63
2022-10-12T10:59:31.061Z,10.77
2022-10-12T11:02:03.526Z,11.82
2022-10-12T11:04:33.762Z,11.55
2022-10-12T11:07:05.487Z,9.52
2022-10-12T11:09:42.203Z,10.90
2022-10-12T11:12:12.838Z,9.52
2022-10-12T11:14:45.245Z,13.73
2022-10-12T11:17:16.308Z,10.45
2022-10-12T11:19:55.791Z,7.70
2022-10-12T11:22:40.401Z,8.00
2022-10-12T11:25:28.008Z,10.77
2022-10-12T11:27:55.270Z,6.65
2022-10-12T11:30:26.847Z,7.53
2022-10-12T11:32:55.812Z,9.18
2022-10-12T11:35:26.171Z,7.05
2022-10-12T11:38:08.018Z,12.88
2022-10-12T11:41:05.707Z,9.45
2022-10-12T11:43:41.138Z,7.00
2022-10-12T11:46:11.112Z,30.38
2022-10-12T11:48:55.852Z,24.98
2022-10-12T11:51:23.092Z,9.23
2022-10-12T11:53:56.559Z,19.08
2022-10-12T11:56:32.216Z,15.07
2022-10-12T11:59:02.325Z,9.73
2022-10-12T12:01:38.811Z,14.32
2022-10-12T12:04:36.850Z,6.60
2022-10-12T12:09:37.392Z,7.35
2022-10-12T12:12:18.512Z,9.68
2022-10-12T12:14:49.061Z,8.35
2022-10-12T12:17:19.049Z,6.25
2022-10-12T12:19:46.529Z,7.90
2022-10-12T12:22:20.185Z,8.75
2022-10-12T12:25:05.945Z,7.88
2022-10-12T12:27:40.600Z,7.43
2022-10-12T12:30:22.656Z,8.75
2022-10-12T12:32:51.477Z,10.30
2022-10-12T12:35:29.942Z,7.60
2022-10-12T12:38:17.543Z,11.50
2022-10-12T12:40:58.937Z,9.95
2022-10-12T12:43:52.467Z,8.95
2022-10-12T12:46:19.719Z,8.73
2022-10-12T12:48:46.863Z,8.77
2022-10-12T12:51:15.334Z,6.75
2022-10-12T12:53:56.030Z,7.07
2022-10-12T12:56:41.719Z,9.30
2022-10-12T13:01:38.803Z,8.45
2022-10-12T13:04:12.165Z,7.47
2022-10-12T13:06:45.112Z,8.25
2022-10-12T13:09:24.150Z,6.50
2022-10-12T13:11:54.089Z,7.97
2022-10-12T13:14:21.201Z,7.70
2022-10-12T13:17:31.727Z,8.07
2022-10-12T13:19:50.917Z,7.15
2022-10-12T13:22:21.636Z,6.90
2022-10-12T13:24:53.337Z,11.93
2022-10-12T13:27:39.404Z,12.95
2022-10-12T13:30:13.918Z,11.00
2022-10-12T13:32:59.423Z,11.65
2022-10-12T13:35:39.706Z,6.13
2022-10-12T13:38:18.633Z,6.03
2022-10-12T13:40:53.191Z,8.63
2022-10-12T13:43:23.389Z,9.48
2022-10-12T13:45:50.536Z,12.82
2022-10-12T13:48:34.109Z,13.38
2022-10-12T13:51:20.462Z,8.73
2022-10-12T13:53:48.069Z,7.13
2022-10-12T13:56:17.177Z,9.52
2022-10-12T13:58:44.357Z,11.07
2022-10-12T14:01:12.238Z,7.47
2022-10-12T14:03:43.688Z,8.73
2022-10-12T14:06:29.269Z,10.30
2022-10-12T14:09:02.217Z,10.25
2022-10-12T14:11:29.589Z,9.70
2022-10-12T14:13:58.393Z,10.10
2022-10-12T14:16:25.545Z,11.70
2022-10-12T14:18:52.770Z,7.38
2022-10-12T14:21:27.206Z,6.85
2022-10-12T14:23:58.687Z,11.63
2022-10-12T14:26:29.226Z,10.27
2022-10-12T14:28:56.998Z,12.90
2022-10-12T14:31:42.743Z,13.20
2022-10-12T14:36:37.094Z,8.25
2022-10-12T14:39:14.464Z,10.30
2022-10-12T14:41:49.936Z,11.40
2022-10-12T14:44:18.587Z,9.70
2022-10-12T14:46:53.253Z,8.63
2022-10-12T14:49:25.358Z,10.02
2022-10-12T14:51:53.716Z,10.57
2022-10-12T14:54:21.302Z,18.75
2022-10-12T14:56:48.509Z,9.02
2022-10-12T14:59:15.798Z,9.52
2022-10-12T15:01:47.481Z,9.00
2022-10-12T15:04:18.338Z,13.82
2022-10-12T15:06:50.516Z,10.60
2022-10-12T15:09:18.129Z,17.92
2022-10-12T15:11:45.281Z,21.35
2022-10-12T15:14:12.659Z,12.32
2022-10-12T15:16:39.850Z,10.63
2022-10-12T15:19:06.986Z,10.77
2022-10-12T15:21:34.174Z,8.23
2022-10-12T15:24:01.301Z,12.40
2022-10-12T15:26:28.509Z,10.95
2022-10-12T15:28:55.742Z,9.13
2022-10-12T15:31:23.002Z,15.02
2022-10-12T15:33:50.289Z,13.40
2022-10-12T15:36:17.421Z,10.23
2022-10-12T15:38:44.615Z,11.35
2022-10-12T15:41:16.685Z,11.32
2022-10-12T15:43:43.962Z,9.05
2022-10-12T15:46:12.337Z,14.70
2022-10-12T15:48:40.395Z,8.13
2022-10-12T15:51:18.291Z,11.57
2022-10-12T15:53:45.614Z,7.28
2022-10-12T15:56:14.417Z,9.07
2022-10-12T15:58:41.728Z,12.35
2022-10-12T16:01:12.755Z,13.88
2022-10-12T16:03:40.018Z,13.07
2022-10-12T16:06:07.466Z,10.25
2022-10-12T16:08:34.618Z,15.13
2022-10-12T16:11:05.496Z,11.80
2022-10-12T16:13:32.847Z,12.95
2022-10-12T16:16:00.203Z,13.90
2022-10-12T16:18:27.381Z,14.43
2022-10-12T16:20:54.598Z,16.70
2022-10-12T16:23:27.125Z,10.68
2022-10-12T16:25:54.801Z,13.65
2022-10-12T16:28:22.843Z,13.82
2022-10-12T16:30:50.855Z,10.07
2022-10-12T16:33:18.764Z,12.82
2022-10-12T16:35:46.135Z,10.10
2022-10-12T16:38:14.815Z,13.93
2022-10-12T16:40:42.475Z,11.10
2022-10-12T16:43:10.157Z,16.30
2022-10-12T16:45:37.439Z,13.02
2022-10-12T16:48:05.005Z,12.13
2022-10-12T16:50:32.168Z,12.45
2022-10-12T16:52:59.484Z,16.65
2022-10-12T16:55:26.820Z,11.48
2022-10-12T16:57:53.966Z,12.57
2022-10-12T17:00:21.309Z,18.80
2022-10-12T17:02:48.995Z,17.33
2022-10-12T17:05:16.243Z,20.98
2022-10-12T17:07:43.395Z,19.42
2022-10-12T17:10:10.772Z,22.13
2022-10-12T17:12:37.966Z,20.13
2022-10-12T17:15:05.452Z,18.83
2022-10-12T17:17:32.653Z,22.33
2022-10-12T17:19:59.893Z,21.13
2022-10-12T17:22:27.024Z,20.58
2022-10-12T17:24:54.208Z,20.77
2022-10-12T17:27:21.385Z,22.00
2022-10-12T17:29:48.601Z,21.63
2022-10-12T17:32:15.934Z,26.45
2022-10-12T17:34:44.502Z,19.63
2022-10-12T17:37:12.516Z,21.23
2022-10-12T17:39:48.318Z,23.55
2022-10-12T17:42:15.666Z,21.42
2022-10-12T17:44:43.148Z,19.58
2022-10-12T17:47:10.346Z,18.55
2022-10-12T17:49:37.509Z,16.77
2022-10-12T17:52:04.902Z,21.33
2022-10-12T17:54:32.911Z,21.65
2022-10-12T17:57:00.097Z,18.13
2022-10-12T17:59:27.304Z,23.88
2022-10-12T18:01:54.958Z,26.55
2022-10-12T18:04:22.232Z,18.90
2022-10-12T18:06:49.397Z,18.15
2022-10-12T18:09:16.551Z,19.80
2022-10-12T18:11:44.518Z,20.75
2022-10-12T18:14:13.071Z,16.42
2022-10-12T18:16:40.264Z,16.10
2022-10-12T18:19:09.724Z,18.38
2022-10-12T18:21:37.252Z,19.42
2022-10-12T18:24:06.919Z,20.63
2022-10-12T18:26:34.959Z,22.85
2022-10-12T18:29:02.648Z,20.15
2022-10-12T18:31:30.426Z,18.23
2022-10-12T18:33:58.269Z,19.90
2022-10-12T18:36:26.326Z,17.42
2022-10-12T18:38:53.782Z,18.77
2022-10-12T18:41:28.272Z,24.15
2022-10-12T18:43:57.647Z,17.80
2022-10-12T18:46:25.804Z,18.75
2022-10-12T18:48:53.201Z,25.45
2022-10-12T18:51:26.363Z,17.13
2022-10-12T18:53:53.741Z,17.05
2022-10-12T18:56:21.027Z,17.95
2022-10-12T18:58:48.273Z,18.63
2022-10-12T19:01:20.020Z,20.35
2022-10-12T19:03:48.294Z,19.73
2022-10-12T19:06:16.626Z,23.50
2022-10-12T19:08:43.938Z,17.35
2022-10-12T19:11:11.822Z,20.85
2022-10-12T19:13:39.707Z,17.98
2022-10-12T19:16:07.084Z,16.77
2022-10-12T19:18:34.410Z,15.48
2022-10-12T19:21:08.866Z,19.40
2022-10-12T19:23:36.297Z,28.40
2022-10-12T19:26:23.794Z,17.60
2022-10-12T19:28:51.526Z,19.90
2022-10-12T19:31:20.531Z,18.55
2022-10-12T19:33:48.180Z,13.93
2022-10-12T19:36:16.239Z,22.58
2022-10-12T19:38:45.920Z,23.35
2022-10-12T19:41:13.489Z,17.45
2022-10-12T19:43:42.976Z,19.25
2022-10-12T19:46:11.825Z,22.67
2022-10-12T19:48:39.449Z,15.65
2022-10-12T19:51:08.123Z,15.15
2022-10-12T19:53:35.690Z,20.10
2022-10-12T19:56:04.430Z,23.15
2022-10-12T19:58:31.743Z,24.75
2022-10-12T20:01:02.628Z,15.77
2022-10-12T20:03:29.943Z,18.88
2022-10-12T20:05:57.196Z,16.75
2022-10-12T20:08:24.571Z,19.60
2022-10-12T20:10:52.261Z,14.93
2022-10-12T20:13:19.425Z,18.75
2022-10-12T20:15:46.606Z,13.73
2022-10-12T20:18:13.770Z,15.57
2022-10-12T20:20:41.809Z,13.77
2022-10-12T20:23:09.000Z,15.18
2022-10-12T20:25:40.685Z,21.67
2022-10-12T20:28:07.822Z,21.17
2022-10-12T20:30:34.967Z,14.98
2022-10-12T20:33:02.199Z,18.00
2022-10-12T20:35:29.498Z,19.42
2022-10-12T20:37:56.695Z,17.08
2022-10-12T20:40:24.021Z,18.55
2022-10-12T20:42:51.196Z,18.08
2022-10-12T20:45:18.690Z,14.20
2022-10-12T20:47:45.923Z,17.17
2022-10-12T20:50:13.699Z,13.00
2022-10-12T20:52:43.132Z,19.13
2022-10-12T20:55:10.623Z,19.80
2022-10-12T20:57:37.842Z,11.52
2022-10-12T21:00:05.519Z,16.30
2022-10-12T21:02:33.640Z,17.52
2022-10-12T21:05:00.836Z,16.13
2022-10-12T21:07:27.964Z,16.45
2022-10-12T21:09:55.128Z,16.05
2022-10-12T21:12:22.304Z,15.63
2022-10-12T21:14:49.651Z,14.77
2022-10-12T21:17:16.947Z,20.65
2022-10-12T21:19:44.089Z,18.50
2022-10-12T21:22:11.312Z,11.32
2022-10-12T21:24:38.456Z,14.25
2022-10-12T21:27:05.667Z,13.98
2022-10-12T21:29:32.868Z,17.73
2022-10-12T21:32:00.046Z,17.05
2022-10-12T21:34:27.329Z,19.38
2022-10-12T21:36:54.505Z,21.50
2022-10-12T21:39:21.690Z,16.70
2022-10-12T21:41:48.921Z,15.88
2022-10-12T21:44:16.065Z,26.90
2022-10-12T21:46:43.296Z,21.38
2022-10-12T21:49:11.311Z,24.85
2022-10-12T21:51:38.467Z,17.45
2022-10-12T21:54:06.437Z,23.88
2022-10-12T21:56:35.148Z,18.35
2022-10-12T21:59:03.177Z,18.45
2022-10-12T22:01:37.372Z,20.10
2022-10-12T22:04:06.364Z,16.92
2022-10-12T22:06:34.421Z,14.45
2022-10-12T22:09:03.020Z,21.38
2022-10-12T22:11:31.121Z,22.00
2022-10-12T22:13:59.791Z,21.15
2022-10-12T22:16:29.243Z,20.25
2022-10-12T22:19:00.309Z,22.60
2022-10-12T22:21:27.529Z,21.33
2022-10-12T22:23:54.724Z,26.80
2022-10-12T22:26:23.367Z,20.63
2022-10-12T22:28:50.591Z,18.77
2022-10-12T22:31:19.121Z,18.42
2022-10-12T22:33:46.420Z,28.52
2022-10-12T22:36:14.485Z,20.92
2022-10-12T22:38:41.909Z,19.25
2022-10-12T22:41:13.325Z,19.95
2022-10-12T22:43:40.544Z,23.35
2022-10-12T22:46:07.904Z,21.05
2022-10-12T22:48:35.685Z,22.25
2022-10-12T22:51:03.133Z,21.38
2022-10-12T22:53:30.785Z,19.90
2022-10-12T22:55:59.658Z,23.75
2022-10-12T22:58:26.874Z,22.98
2022-10-12T23:00:54.112Z,22.17
2022-10-12T23:03:21.361Z,26.17
2022-10-12T23:05:49.196Z,16.52
2022-10-12T23:08:16.454Z,22.92
2022-10-12T23:10:43.692Z,19.95
2022-10-12T23:13:10.901Z,19.27
2022-10-12T23:15:38.108Z,23.83
2022-10-12T23:18:05.255Z,18.90
2022-10-12T23:20:32.403Z,29.15
2022-10-12T23:22:59.600Z,20.15
2022-10-12T23:25:28.569Z,24.95
2022-10-12T23:27:55.754Z,23.75
2022-10-12T23:30:22.955Z,26.65
2022-10-12T23:32:50.097Z,32.92
2022-10-12T23:35:17.376Z,24.77
2022-10-12T23:37:44.526Z,26.63
2022-10-12T23:40:12.032Z,24.42
2022-10-12T23:42:39.233Z,25.92
2022-10-12T23:45:06.629Z,27.75
2022-10-12T23:47:33.832Z,26.65
2022-10-12T23:50:01.072Z,21.20
2022-10-12T23:52:29.056Z,23.45
2022-10-12T23:54:56.473Z,23.92
2022-10-12T23:57:45.789Z,26.20
